Time;durP1;ratioP1;P1;durP2;ratioP2;P2;SDS_P1;SDS_P2;PMS_P1;PMS_P2;Temp;Humidity;BMP_temperature;BMP_pressure;BME280_temperature;BME280_humidity;BME280_pressure;Samples;Min_cycle;Max_cycle;Signal;HPM_P1;HPM_P2
2023/06/06 00:01:25;;;;;;;20.23;14.60;;;21.80;98.90;;;;;;5094589;28;20118;-79
2023/06/06 00:04:29;;;;;;;19.90;14.32;;;21.80;99.10;;;;;;5094737;28;20498;-80
2023/06/06 00:07:34;;;;;;;22.20;14.10;;;21.80;98.90;;;;;;5094135;28;20055;-80
2023/06/06 00:10:38;;;;;;;22.15;14.43;;;21.80;99.10;;;;;;5094557;28;20051;-79
2023/06/06 00:13:42;;;;;;;22.30;14.15;;;21.80;98.80;;;;;;5093948;28;20047;-80
2023/06/06 00:16:48;;;;;;;17.63;12.93;;;21.70;98.50;;;;;;5094156;28;20518;-80
2023/06/06 00:19:52;;;;;;;20.80;10.90;;;21.60;98.70;;;;;;5094456;28;20502;-80
2023/06/06 00:22:56;;;;;;;16.95;12.82;;;21.50;97.80;;;;;;5093860;28;20043;-79
2023/06/06 00:26:00;;;;;;;20.65;12.93;;;21.50;98.30;;;;;;5081591;28;20039;-79
2023/06/06 00:29:04;;;;;;;19.42;13.50;;;21.50;98.60;;;;;;5093451;28;20039;-79
2023/06/06 00:32:08;;;;;;;21.10;12.57;;;21.50;98.70;;;;;;5094436;28;20090;-79
2023/06/06 00:35:12;;;;;;;17.90;12.02;;;21.50;98.70;;;;;;5094808;28;20400;-80
2023/06/06 00:38:16;;;;;;;17.17;12.48;;;21.50;98.50;;;;;;5093739;28;20058;-80
2023/06/06 00:41:20;;;;;;;20.05;13.18;;;21.60;98.30;;;;;;5081358;28;20043;-80
2023/06/06 00:44:24;;;;;;;19.10;13.32;;;21.50;98.30;;;;;;5093946;28;20294;-81
2023/06/06 00:47:29;;;;;;;21.73;13.57;;;21.50;98.50;;;;;;5069731;28;20051;-81
2023/06/06 00:50:34;;;;;;;24.27;14.85;;;21.40;98.60;;;;;;5081108;28;20039;-79
2023/06/06 00:53:38;;;;;;;21.98;15.43;;;21.40;98.60;;;;;;5081189;28;20498;-80
2023/06/06 00:56:44;;;;;;;20.50;14.90;;;21.50;98.70;;;;;;5081030;28;20039;-80
2023/06/06 00:59:48;;;;;;;22.23;14.77;;;21.40;98.50;;;;;;5080625;28;20058;-80
2023/06/06 01:02:52;;;;;;;24.10;14.93;;;21.40;98.50;;;;;;5093560;28;20042;-81
2023/06/06 01:05:57;;;;;;;21.38;14.88;;;21.30;98.50;;;;;;5057714;28;20043;-80
2023/06/06 01:09:07;;;;;;;21.45;14.63;;;21.30;98.50;;;;;;5080632;28;20392;-80
2023/06/06 01:12:27;;;;;;;23.15;15.02;;;21.30;98.60;;;;;;5080678;28;20388;-80
2023/06/06 01:15:51;;;;;;;20.30;14.27;;;21.20;98.60;;;;;;5093400;28;20043;-80
2023/06/06 01:18:57;;;;;;;19.77;14.02;;;21.10;98.70;;;;;;5080429;28;20055;-80
2023/06/06 01:22:01;;;;;;;24.55;14.65;;;21.10;98.60;;;;;;5093111;28;20051;-79
2023/06/06 01:25:08;;;;;;;21.58;13.95;;;21.10;98.40;;;;;;5068952;28;20043;-80
2023/06/06 01:28:15;;;;;;;18.95;14.23;;;21.10;98.10;;;;;;5080354;28;20062;-80
2023/06/06 01:31:23;;;;;;;19.13;13.80;;;21.10;98.20;;;;;;5079985;28;20062;-80
2023/06/06 01:35:10;;;;;;;19.73;13.93;;;21.10;98.10;;;;;;5092327;28;20043;-80
2023/06/06 01:38:25;;;;;;;21.85;14.07;;;21.10;98.30;;;;;;5073918;28;20696;-80
2023/06/06 01:41:33;;;;;;;22.20;13.68;;;21.10;98.20;;;;;;5068629;28;20051;-80
2023/06/06 01:44:38;;;;;;;19.15;13.90;;;21.20;98.20;;;;;;5057053;28;20047;-80
2023/06/06 01:47:44;;;;;;;20.63;13.80;;;21.20;98.20;;;;;;5079932;28;20056;-80
2023/06/06 01:50:48;;;;;;;18.67;14.75;;;21.20;98.20;;;;;;5080014;28;20051;-80
2023/06/06 01:53:57;;;;;;;19.55;13.63;;;21.20;98.40;;;;;;5092289;28;20051;-79
2023/06/06 01:57:02;;;;;;;20.50;13.98;;;21.20;98.50;;;;;;5068308;28;20040;-79
2023/06/06 02:00:08;;;;;;;20.55;13.70;;;21.10;98.60;;;;;;5079674;28;20616;-80
2023/06/06 02:03:18;;;;;;;17.42;13.32;;;21.10;98.60;;;;;;5092135;28;20035;-80
2023/06/06 02:06:23;;;;;;;19.77;13.85;;;21.10;98.60;;;;;;5068115;28;20039;-80
2023/06/06 02:09:27;;;;;;;20.23;13.32;;;21.10;98.50;;;;;;5079597;28;20047;-80
2023/06/06 02:12:31;;;;;;;18.33;13.15;;;21.10;98.30;;;;;;5079849;28;20047;-80
2023/06/06 02:15:35;;;;;;;19.08;13.82;;;21.10;98.20;;;;;;5091762;28;20043;-80
2023/06/06 02:18:44;;;;;;;20.85;12.82;;;21.00;98.30;;;;;;5079219;28;20047;-80
2023/06/06 02:21:50;;;;;;;16.55;12.98;;;20.90;98.30;;;;;;5091707;28;20047;-79
2023/06/06 02:24:54;;;;;;;21.30;13.60;;;20.90;98.30;;;;;;5079254;28;20529;-79
2023/06/06 02:27:59;;;;;;;18.58;12.45;;;20.90;98.10;;;;;;5091377;28;20047;-79
2023/06/06 02:31:03;;;;;;;17.55;11.82;;;20.90;98.10;;;;;;5079221;28;20063;-80
2023/06/06 02:34:07;;;;;;;21.67;13.15;;;20.80;98.30;;;;;;5079110;28;20044;-79
2023/06/06 02:37:11;;;;;;;20.27;12.18;;;20.80;98.00;;;;;;5078809;28;20051;-80
2023/06/06 02:40:17;;;;;;;17.02;12.00;;;20.80;97.90;;;;;;5079141;28;20372;-80
2023/06/06 02:43:21;;;;;;;17.58;11.90;;;20.80;98.10;;;;;;5078693;28;20392;-80
2023/06/06 02:46:27;;;;;;;23.40;12.85;;;20.80;97.90;;;;;;5078863;28;20039;-80
2023/06/06 02:49:32;;;;;;;16.60;12.85;;;20.80;97.90;;;;;;5078324;28;20106;-80
2023/06/06 02:52:38;;;;;;;24.15;13.32;;;20.80;98.40;;;;;;5066933;28;20055;-80
2023/06/06 02:55:42;;;;;;;21.55;13.05;;;20.70;98.60;;;;;;5078904;28;20050;-80
2023/06/06 02:58:47;;;;;;;17.90;13.90;;;20.70;98.70;;;;;;5078432;28;20114;-80
2023/06/06 03:01:51;;;;;;;18.70;13.85;;;20.80;98.90;;;;;;5078782;28;20392;-80
2023/06/06 03:04:55;;;;;;;20.55;14.15;;;20.70;99.10;;;;;;5091475;28;20051;-78
2023/06/06 03:08:00;;;;;;;22.25;14.48;;;20.70;99.10;;;;;;5090672;28;20054;-78
2023/06/06 03:11:04;;;;;;;17.75;13.82;;;20.70;99.30;;;;;;5067243;28;20043;-78
2023/06/06 03:14:11;;;;;;;22.40;14.63;;;20.70;99.40;;;;;;5078577;28;20067;-78
2023/06/06 03:17:17;;;;;;;18.73;14.27;;;20.70;99.50;;;;;;5078545;28;20051;-78
2023/06/06 03:20:21;;;;;;;22.95;14.13;;;20.60;99.50;;;;;;5078602;28;20519;-79
2023/06/06 03:23:35;;;;;;;19.92;14.10;;;20.50;99.80;;;;;;5078695;28;20043;-79
2023/06/06 03:26:46;;;;;;;24.42;14.35;;;20.50;99.90;;;;;;5078424;28;20039;-77
2023/06/06 03:29:53;;;;;;;20.45;14.07;;;20.40;99.90;;;;;;5078314;28;20094;-79
2023/06/06 03:33:00;;;;;;;21.80;14.23;;;20.50;99.90;;;;;;5078524;28;20134;-79
2023/06/06 03:36:08;;;;;;;23.52;15.02;;;20.40;99.90;;;;;;5078497;28;20055;-79
2023/06/06 03:39:13;;;;;;;24.15;14.80;;;20.30;99.90;;;;;;5078450;28;20063;-80
2023/06/06 03:42:17;;;;;;;19.33;14.57;;;20.20;99.90;;;;;;5078544;28;20039;-79
2023/06/06 03:45:23;;;;;;;18.77;14.52;;;20.10;99.90;;;;;;5078660;28;20059;-80
2023/06/06 03:48:28;;;;;;;20.77;14.68;;;20.10;99.90;;;;;;5066992;28;20047;-81
2023/06/06 03:51:32;;;;;;;22.10;13.52;;;20.10;99.90;;;;;;5078520;28;20047;-80
2023/06/06 03:54:37;;;;;;;18.23;13.38;;;20.10;99.90;;;;;;5079056;28;20043;-80
2023/06/06 03:57:41;;;;;;;17.52;13.10;;;20.20;99.90;;;;;;5090635;28;20047;-78
2023/06/06 04:00:45;;;;;;;19.63;12.68;;;20.20;99.90;;;;;;5078689;28;20055;-79
2023/06/06 04:03:49;;;;;;;18.63;12.48;;;20.30;99.90;;;;;;5079049;28;20403;-79
2023/06/06 04:06:53;;;;;;;24.40;13.25;;;20.30;99.70;;;;;;5094020;28;20055;-79
2023/06/06 04:09:58;;;;;;;23.85;12.93;;;20.10;99.90;;;;;;5082008;28;20524;-80
2023/06/06 04:13:02;;;;;;;18.15;12.65;;;20.10;99.90;;;;;;5070845;28;20503;-79
2023/06/06 04:16:06;;;;;;;18.17;12.02;;;20.10;99.90;;;;;;5081837;28;20051;-79
2023/06/06 04:19:11;;;;;;;26.35;11.93;;;20.20;99.90;;;;;;5082420;28;20062;-80
2023/06/06 04:22:15;;;;;;;17.33;12.50;;;20.20;99.80;;;;;;5070666;28;20051;-79
2023/06/06 04:25:19;;;;;;;19.55;11.63;;;20.30;99.90;;;;;;5094591;28;20399;-78
2023/06/06 04:28:24;;;;;;;22.25;13.10;;;20.40;99.80;;;;;;5081791;28;20051;-78
2023/06/06 04:31:31;;;;;;;19.10;12.25;;;20.40;99.70;;;;;;5082392;28;20054;-79
2023/06/06 04:34:40;;;;;;;16.88;12.20;;;20.50;99.70;;;;;;5070241;28;20043;-79
2023/06/06 04:37:53;;;;;;;20.23;11.93;;;20.50;99.90;;;;;;5081706;28;20518;-78
2023/06/06 04:41:01;;;;;;;21.42;12.13;;;20.50;99.80;;;;;;5069920;28;20392;-79
2023/06/06 04:44:06;;;;;;;24.23;12.23;;;20.50;99.70;;;;;;5081584;28;20043;-79
2023/06/06 04:47:12;;;;;;;27.50;13.35;;;20.50;99.90;;;;;;5094358;28;20121;-79
2023/06/06 04:50:19;;;;;;;18.08;11.30;;;20.70;99.90;;;;;;5093929;28;20047;-79
2023/06/06 04:53:24;;;;;;;16.98;11.65;;;20.90;99.40;;;;;;5081169;28;20395;-80
2023/06/06 04:56:28;;;;;;;21.52;12.85;;;21.10;98.60;;;;;;5081880;28;20039;-79
2023/06/06 04:59:33;;;;;;;16.40;10.52;;;21.20;98.40;;;;;;5094027;28;20498;-80
2023/06/06 05:02:37;;;;;;;19.75;11.05;;;21.30;98.40;;;;;;5093452;28;20302;-78
2023/06/06 05:05:42;;;;;;;20.58;12.32;;;21.40;98.10;;;;;;5093545;28;20388;-79
2023/06/06 05:08:46;;;;;;;15.73;11.50;;;21.40;98.30;;;;;;5091845;28;20055;-63
2023/06/06 05:11:52;;;;;;;20.02;11.60;;;21.50;97.60;;;;;;5093256;28;20043;-64
2023/06/06 05:14:56;;;;;;;20.88;11.32;;;21.40;98.10;;;;;;5093363;28;20043;-65
2023/06/06 05:18:01;;;;;;;19.95;12.75;;;21.40;97.90;;;;;;5093048;28;20047;-63
2023/06/06 05:21:05;;;;;;;20.33;12.15;;;21.50;98.10;;;;;;5092871;28;20043;-64
2023/06/06 05:24:09;;;;;;;22.85;12.73;;;21.60;98.00;;;;;;5093134;28;20102;-64
2023/06/06 05:27:13;;;;;;;17.65;11.52;;;21.90;97.70;;;;;;5092866;28;20043;-65
2023/06/06 05:30:17;;;;;;;18.88;12.15;;;22.30;97.50;;;;;;5092727;28;20043;-62
2023/06/06 05:33:21;;;;;;;21.90;12.52;;;22.60;96.80;;;;;;5080442;28;20039;-64
2023/06/06 05:36:26;;;;;;;32.08;12.77;;;22.80;96.10;;;;;;5092785;28;20047;-64
2023/06/06 05:39:30;;;;;;;22.52;12.95;;;22.80;95.90;;;;;;5092199;28;20047;-63
2023/06/06 05:42:34;;;;;;;25.13;12.95;;;22.80;95.80;;;;;;5092657;28;20395;-63
2023/06/06 05:45:37;;;;;;;23.20;13.68;;;22.90;95.80;;;;;;5092642;28;20039;-62
2023/06/06 05:48:42;;;;;;;21.70;12.13;;;22.90;96.00;;;;;;5092597;28;20035;-63
2023/06/06 05:51:46;;;;;;;24.23;12.90;;;23.00;95.90;;;;;;5092339;28;20058;-64
2023/06/06 05:54:55;;;;;;;25.85;12.75;;;23.00;96.40;;;;;;5092517;28;20071;-64
2023/06/06 05:57:59;;;;;;;24.40;13.10;;;23.10;96.10;;;;;;5092198;28;20051;-63
2023/06/06 06:01:04;;;;;;;21.55;14.10;;;23.00;96.10;;;;;;5092543;28;20499;-64
2023/06/06 06:04:08;;;;;;;18.30;13.68;;;22.90;95.90;;;;;;5079288;28;20038;-63
2023/06/06 06:07:13;;;;;;;23.90;13.57;;;23.00;95.50;;;;;;5091630;28;20071;-63
2023/06/06 06:10:17;;;;;;;22.00;13.85;;;23.00;95.70;;;;;;5079505;28;20396;-64
2023/06/06 06:13:21;;;;;;;26.17;13.20;;;23.10;95.60;;;;;;5092098;28;20051;-65
2023/06/06 06:16:25;;;;;;;19.42;12.35;;;23.30;95.70;;;;;;5091636;28;20051;-64
2023/06/06 06:19:29;;;;;;;30.88;13.05;;;23.50;95.40;;;;;;5091844;28;20059;-64
2023/06/06 06:22:37;;;;;;;19.40;11.90;;;23.90;94.70;;;;;;5091546;28;20047;-60
2023/06/06 06:25:41;;;;;;;18.00;12.23;;;24.20;94.10;;;;;;5091898;28;20114;-61
2023/06/06 06:28:46;;;;;;;22.83;12.88;;;24.60;94.50;;;;;;5091514;28;20106;-60
2023/06/06 06:31:50;;;;;;;29.67;12.57;;;24.90;93.50;;;;;;5091742;28;20067;-61
2023/06/06 06:34:55;;;;;;;23.60;12.23;;;25.20;93.30;;;;;;5091245;28;20099;-59
2023/06/06 06:37:59;;;;;;;18.23;11.77;;;25.40;92.90;;;;;;5091451;28;20051;-62
2023/06/06 06:41:03;;;;;;;29.15;14.18;;;25.70;92.60;;;;;;5091512;28;20060;-61
2023/06/06 06:44:07;;;;;;;29.27;12.60;;;25.80;92.30;;;;;;5091629;28;20047;-61
2023/06/06 06:47:11;;;;;;;20.60;12.27;;;26.00;91.90;;;;;;5091122;28;20102;-60
2023/06/06 06:50:15;;;;;;;20.15;11.60;;;26.00;91.60;;;;;;5091415;28;20046;-60
2023/06/06 06:53:23;;;;;;;14.85;10.57;;;26.00;91.50;;;;;;5091140;28;20106;-61
2023/06/06 06:56:27;;;;;;;21.40;11.88;;;26.00;91.60;;;;;;5091030;28;20615;-60
2023/06/06 06:59:31;;;;;;;18.00;11.82;;;26.20;91.20;;;;;;5090809;28;20047;-61
2023/06/06 07:02:39;;;;;;;23.80;11.45;;;26.30;91.00;;;;;;5090933;28;20043;-60
2023/06/06 07:05:43;;;;;;;18.50;11.32;;;26.40;91.20;;;;;;5091157;28;20051;-61
2023/06/06 07:08:49;;;;;;;16.35;10.05;;;26.60;90.60;;;;;;5090718;28;20047;-61
2023/06/06 07:11:52;;;;;;;16.85;10.30;;;26.70;91.00;;;;;;5090904;28;20502;-60
2023/06/06 07:14:56;;;;;;;14.20;9.80;;;27.00;90.70;;;;;;5091261;28;20051;-61
2023/06/06 07:18:02;;;;;;;13.80;9.13;;;27.30;90.70;;;;;;5090712;28;20055;-60
2023/06/06 07:21:06;;;;;;;12.90;10.38;;;27.50;90.40;;;;;;5090918;28;20051;-61
2023/06/06 07:24:10;;;;;;;26.58;10.85;;;27.50;89.50;;;;;;5091045;28;20042;-60
2023/06/06 07:27:15;;;;;;;18.60;10.68;;;27.50;89.80;;;;;;5090880;28;20059;-61
2023/06/06 07:30:19;;;;;;;16.88;10.00;;;27.70;89.80;;;;;;5091001;28;20047;-60
2023/06/06 07:33:23;;;;;;;16.10;10.27;;;27.70;89.80;;;;;;5090768;28;20043;-60
2023/06/06 07:36:27;;;;;;;12.00;9.07;;;27.90;89.20;;;;;;5090806;28;20403;-61
2023/06/06 07:39:31;;;;;;;12.85;8.98;;;28.00;87.90;;;;;;5094297;28;20058;-62
2023/06/06 07:42:36;;;;;;;20.05;9.52;;;28.00;86.90;;;;;;5094693;28;20039;-59
2023/06/06 07:45:40;;;;;;;19.33;9.98;;;28.00;87.00;;;;;;5094952;28;20051;-60
2023/06/06 07:48:44;;;;;;;15.52;8.55;;;28.00;86.90;;;;;;5094856;28;20525;-60
2023/06/06 07:51:48;;;;;;;10.32;8.57;;;28.10;86.30;;;;;;5094868;28;20503;-61
2023/06/06 07:54:52;;;;;;;12.25;9.40;;;28.30;86.40;;;;;;5082314;28;20046;-61
2023/06/06 07:57:57;;;;;;;14.45;8.40;;;28.40;85.90;;;;;;5094370;28;20506;-59
2023/06/06 08:01:03;;;;;;;14.02;8.93;;;28.70;85.40;;;;;;5082192;28;20055;-60
2023/06/06 08:04:07;;;;;;;16.50;9.73;;;28.70;84.50;;;;;;5094568;28;20047;-61
2023/06/06 08:07:15;;;;;;;12.52;9.85;;;28.50;85.00;;;;;;5094162;28;20067;-60
2023/06/06 08:10:20;;;;;;;12.10;9.65;;;28.00;84.40;;;;;;5094917;28;20055;-60
2023/06/06 08:13:24;;;;;;;19.92;11.25;;;27.70;86.10;;;;;;5094199;28;20047;-60
2023/06/06 08:16:29;;;;;;;19.08;10.70;;;27.30;86.90;;;;;;5094041;28;20048;-60
2023/06/06 08:19:34;;;;;;;17.85;11.05;;;27.00;88.40;;;;;;5093892;28;20114;-60
2023/06/06 08:22:46;;;;;;;16.50;10.32;;;26.90;89.30;;;;;;5094364;28;20047;-60
2023/06/06 08:25:55;;;;;;;18.45;10.98;;;26.80;89.50;;;;;;5093836;28;20298;-60
2023/06/06 08:28:59;;;;;;;20.08;11.77;;;26.90;90.20;;;;;;5094085;28;20047;-60
2023/06/06 08:32:06;;;;;;;16.75;11.23;;;26.80;89.90;;;;;;5093980;28;20047;-60
2023/06/06 08:35:10;;;;;;;24.60;13.38;;;26.70;89.80;;;;;;5093969;28;20040;-61
2023/06/06 08:38:15;;;;;;;21.98;12.73;;;26.70;90.20;;;;;;5094019;28;20059;-62
2023/06/06 08:41:20;;;;;;;20.55;12.88;;;26.70;90.00;;;;;;5094167;28;20062;-60
2023/06/06 08:44:24;;;;;;;18.55;11.65;;;26.90;90.20;;;;;;5093659;28;20047;-60
2023/06/06 08:47:31;;;;;;;17.08;11.32;;;27.00;90.00;;;;;;5093916;28;20046;-61
2023/06/06 08:50:35;;;;;;;27.67;13.43;;;26.90;89.20;;;;;;5093152;28;20039;-60
2023/06/06 08:53:43;;;;;;;42.40;13.38;;;26.80;89.10;;;;;;5094173;28;20154;-59
2023/06/06 08:56:48;;;;;;;15.98;10.40;;;27.00;90.40;;;;;;5093835;28;20102;-60
2023/06/06 09:00:18;;;;;;;18.95;9.35;;;27.30;90.00;;;;;;5093378;28;20055;-61
2023/06/06 09:03:22;;;;;;;20.05;10.00;;;27.50;89.50;;;;;;5093529;28;20043;-60
2023/06/06 09:06:27;;;;;;;14.45;9.25;;;27.80;89.40;;;;;;5093152;28;20047;-61
2023/06/06 09:09:36;;;;;;;14.70;10.85;;;28.00;89.00;;;;;;5093540;28;20055;-60
2023/06/06 09:12:46;;;;;;;14.43;9.30;;;28.10;88.20;;;;;;5093282;28;20059;-61
2023/06/06 09:15:50;;;;;;;14.43;9.98;;;28.20;87.90;;;;;;5093224;28;20277;-60
2023/06/06 09:18:57;;;;;;;18.55;9.63;;;28.30;88.00;;;;;;5093425;28;20210;-61
2023/06/06 09:22:07;;;;;;;22.00;11.57;;;28.10;85.80;;;;;;5093191;28;20047;-61
2023/06/06 09:25:22;;;;;;;28.70;10.83;;;27.90;86.80;;;;;;5093327;28;20043;-60
2023/06/06 09:28:37;;;;;;;15.75;8.80;;;27.80;87.50;;;;;;5093141;28;20051;-59
2023/06/06 09:31:42;;;;;;;13.48;9.32;;;27.70;85.40;;;;;;5092595;28;20051;-60
2023/06/06 09:34:46;;;;;;;18.30;9.63;;;27.60;85.30;;;;;;5092667;28;20364;-59
2023/06/06 09:37:52;;;;;;;14.80;8.50;;;27.60;86.30;;;;;;5092434;28;20044;-60
2023/06/06 09:40:58;;;;;;;18.42;10.68;;;27.60;86.80;;;;;;5092344;28;20623;-60
2023/06/06 09:44:04;;;;;;;17.60;8.90;;;27.50;86.50;;;;;;5092642;28;20051;-60
2023/06/06 09:47:08;;;;;;;9.32;8.02;;;27.50;86.50;;;;;;5092227;28;20372;-60
2023/06/06 09:50:13;;;;;;;13.55;8.32;;;27.60;87.40;;;;;;5092796;28;20039;-60
2023/06/06 09:53:18;;;;;;;13.02;8.15;;;27.70;88.10;;;;;;5092112;28;20038;-60
2023/06/06 09:56:25;;;;;;;12.90;7.95;;;27.90;88.30;;;;;;5092025;28;20039;-61
2023/06/06 09:59:30;;;;;;;14.05;7.72;;;28.00;87.90;;;;;;5091970;28;20058;-60
2023/06/06 10:02:35;;;;;;;15.95;8.48;;;28.20;88.30;;;;;;5091254;28;20051;-60
2023/06/06 10:05:39;;;;;;;11.65;7.82;;;28.40;87.80;;;;;;5091926;28;20046;-60
2023/06/06 10:08:45;;;;;;;13.18;8.82;;;28.50;87.70;;;;;;5079369;28;20479;-60
2023/06/06 10:11:51;;;;;;;11.93;8.38;;;28.70;87.80;;;;;;5067734;28;20051;-60
2023/06/06 10:14:56;;;;;;;14.55;8.40;;;28.80;86.80;;;;;;5091780;28;20106;-61
2023/06/06 10:18:01;;;;;;;11.15;7.90;;;28.80;86.30;;;;;;5092071;28;20047;-60
2023/06/06 10:21:06;;;;;;;13.07;7.30;;;28.80;86.80;;;;;;5092127;28;20067;-60
2023/06/06 10:24:09;;;;;;;13.73;7.90;;;28.80;85.90;;;;;;5091815;28;20039;-59
2023/06/06 10:27:21;;;;;;;15.25;8.20;;;28.80;86.50;;;;;;5091658;28;20047;-61
2023/06/06 10:30:36;;;;;;;16.45;8.38;;;28.80;86.50;;;;;;5091814;28;20515;-59
2023/06/06 10:33:51;;;;;;;16.33;7.68;;;28.70;87.20;;;;;;5091647;28;20416;-60
2023/06/06 10:36:57;;;;;;;15.27;7.65;;;28.80;86.00;;;;;;5091875;28;20051;-60
2023/06/06 10:40:04;;;;;;;16.08;8.35;;;28.70;86.70;;;;;;5091546;28;20055;-61
2023/06/06 10:43:10;;;;;;;14.77;7.80;;;28.60;87.20;;;;;;5091823;28;20051;-60
2023/06/06 10:46:15;;;;;;;14.90;7.65;;;28.50;87.00;;;;;;5091514;28;20051;-61
2023/06/06 10:49:20;;;;;;;13.60;6.78;;;28.50;87.70;;;;;;5091817;28;20043;-58
2023/06/06 10:52:25;;;;;;;15.95;6.38;;;28.40;87.20;;;;;;5091220;28;20401;-60
2023/06/06 10:55:29;;;;;;;11.40;6.22;;;28.40;87.30;;;;;;5091434;28;20055;-61
2023/06/06 10:58:35;;;;;;;13.48;7.00;;;28.30;87.00;;;;;;5091042;28;20442;-60
2023/06/06 11:01:46;;;;;;;13.07;6.00;;;28.40;87.30;;;;;;5091109;28;20118;-60
2023/06/06 11:04:59;;;;;;;12.30;5.90;;;28.30;86.70;;;;;;5091337;28;20241;-61
2023/06/06 11:08:03;;;;;;;11.95;5.38;;;28.30;86.30;;;;;;5091218;28;20047;-60
2023/06/06 11:11:17;;;;;;;16.65;6.10;;;28.30;85.70;;;;;;5090978;28;20093;-61
2023/06/06 11:14:22;;;;;;;13.55;5.43;;;28.30;86.20;;;;;;5090544;28;20410;-59
2023/06/06 11:17:42;;;;;;;11.10;6.15;;;28.30;86.20;;;;;;5091032;28;20043;-60
2023/06/06 11:20:47;;;;;;;18.30;7.23;;;28.30;86.80;;;;;;5089281;28;20051;-61
2023/06/06 11:23:52;;;;;;;16.67;6.55;;;28.30;87.00;;;;;;5089083;28;20289;-60
2023/06/06 11:26:57;;;;;;;13.68;6.90;;;28.10;87.20;;;;;;5089378;28;20039;-61
2023/06/06 11:30:02;;;;;;;17.17;6.22;;;28.00;86.80;;;;;;5090013;28;20043;-60
2023/06/06 11:33:11;;;;;;;14.90;6.95;;;27.90;87.70;;;;;;5090287;28;20059;-60
2023/06/06 11:36:15;;;;;;;18.00;6.10;;;27.80;87.50;;;;;;5090656;28;20047;-59
2023/06/06 11:39:21;;;;;;;15.32;6.30;;;27.70;88.40;;;;;;5091061;28;20051;-61
2023/06/06 11:42:24;;;;;;;20.83;6.70;;;27.70;88.80;;;;;;5090923;28;20055;-61
2023/06/06 11:45:31;;;;;;;14.65;6.85;;;27.60;89.80;;;;;;5091145;28;20145;-61
2023/06/06 11:48:35;;;;;;;15.25;6.28;;;27.70;89.50;;;;;;5090704;28;20047;-61
2023/06/06 11:51:40;;;;;;;15.52;6.25;;;27.80;89.20;;;;;;5090801;28;20420;-61
2023/06/06 11:54:57;;;;;;;15.65;6.95;;;27.90;89.20;;;;;;5090363;28;20527;-61
2023/06/06 11:58:05;;;;;;;18.25;5.90;;;27.90;88.80;;;;;;5091064;28;20214;-59
2023/06/06 12:01:10;;;;;;;16.40;6.55;;;28.00;89.30;;;;;;5090678;28;20054;-61
2023/06/06 12:04:16;;;;;;;13.63;6.30;;;28.00;89.60;;;;;;5090677;28;20035;-60
2023/06/06 12:07:21;;;;;;;12.05;5.75;;;28.00;88.80;;;;;;5090512;28;20067;-62
2023/06/06 12:10:30;;;;;;;13.30;5.85;;;27.90;87.60;;;;;;5090911;28;20059;-61
2023/06/06 12:13:34;;;;;;;13.73;6.43;;;27.90;88.50;;;;;;5090626;28;20404;-61
2023/06/06 12:16:38;;;;;;;14.38;5.95;;;27.80;88.80;;;;;;5077666;28;20051;-61
2023/06/06 12:19:43;;;;;;;17.40;6.47;;;27.80;89.00;;;;;;5089982;28;20055;-62
2023/06/06 12:22:49;;;;;;;13.90;5.65;;;27.80;89.10;;;;;;5089990;28;20067;-62
2023/06/06 12:25:57;;;;;;;14.82;6.60;;;27.90;88.80;;;;;;5091434;28;20051;-61
2023/06/06 12:29:06;;;;;;;15.65;5.40;;;27.90;89.50;;;;;;5081811;28;20047;-61
2023/06/06 12:32:13;;;;;;;15.20;5.85;;;27.90;89.30;;;;;;5094157;28;20050;-60
2023/06/06 12:35:21;;;;;;;15.95;5.82;;;27.80;88.90;;;;;;5093810;28;20043;-61
2023/06/06 12:38:25;;;;;;;12.10;5.00;;;27.90;88.70;;;;;;5081614;28;20047;-61
2023/06/06 12:41:39;;;;;;;20.83;5.40;;;27.90;88.10;;;;;;5093895;28;20526;-61
2023/06/06 12:44:44;;;;;;;21.00;6.03;;;27.80;88.50;;;;;;5093933;28;20396;-63
2023/06/06 12:47:50;;;;;;;16.70;5.55;;;27.50;88.60;;;;;;5093643;28;20043;-62
2023/06/06 12:50:55;;;;;;;400.05;33.20;;;27.40;89.30;;;;;;5094119;28;20039;-71
2023/06/06 12:53:59;;;;;;;273.77;25.15;;;27.30;90.00;;;;;;5079771;28;20069;-72
2023/06/06 12:57:05;;;;;;;62.78;9.18;;;27.20;90.00;;;;;;5093080;28;20039;-72
2023/06/06 13:00:13;;;;;;;35.45;5.60;;;27.10;90.20;;;;;;5093217;28;20059;-71
2023/06/06 13:03:17;;;;;;;16.13;5.88;;;27.00;90.70;;;;;;5093395;28;20043;-72
2023/06/06 13:06:21;;;;;;;19.02;6.20;;;27.00;91.10;;;;;;5093451;28;20051;-72
2023/06/06 13:09:27;;;;;;;19.52;5.80;;;27.00;90.90;;;;;;5093205;28;20183;-68
2023/06/06 13:12:32;;;;;;;28.23;12.25;;;26.90;91.20;;;;;;5094686;28;20043;-82
2023/06/06 13:15:36;;;;;;;16.20;5.43;;;26.90;91.60;;;;;;5082453;28;20051;-83
2023/06/06 13:18:40;;;;;;;18.65;5.72;;;26.90;93.90;;;;;;5093760;28;20055;-79
2023/06/06 13:21:45;;;;;;;40.65;10.30;;;26.80;93.60;;;;;;5093480;28;20051;-82
2023/06/06 13:24:48;;;;;;;21.65;5.63;;;26.70;93.50;;;;;;5070246;28;20039;-75
2023/06/06 13:27:52;;;;;;;43.90;6.90;;;26.60;93.30;;;;;;5093262;28;20051;-77
2023/06/06 13:30:58;;;;;;;28.67;7.93;;;26.50;92.90;;;;;;5093685;28;20047;-75
2023/06/06 13:34:02;;;;;;;13.52;5.32;;;26.50;92.90;;;;;;5081110;28;20043;-77
2023/06/06 13:37:06;;;;;;;23.92;5.65;;;26.50;92.70;;;;;;5093077;28;20047;-77
2023/06/06 13:40:11;;;;;;;31.85;15.65;;;26.50;92.70;;;;;;5068566;28;20059;-75
2023/06/06 13:43:15;;;;;;;18.42;8.38;;;26.50;92.40;;;;;;5092873;28;20059;-79
2023/06/06 13:46:20;;;;;;;18.83;6.97;;;26.50;92.20;;;;;;5092783;28;20051;-76
2023/06/06 13:49:24;;;;;;;20.67;5.53;;;26.40;92.30;;;;;;5081135;28;20503;-78
2023/06/06 13:52:29;;;;;;;16.23;7.50;;;26.30;92.50;;;;;;5093051;28;20046;-78
2023/06/06 13:55:32;;;;;;;17.63;7.55;;;26.30;92.60;;;;;;5092464;28;20499;-74
2023/06/06 13:58:49;;;;;;;16.17;7.28;;;26.30;92.20;;;;;;5079741;28;20066;-70
2023/06/06 14:01:53;;;;;;;20.67;7.85;;;26.30;92.20;;;;;;5092111;28;20059;-68
2023/06/06 14:04:57;;;;;;;25.08;7.93;;;26.20;92.00;;;;;;5091841;28;20039;-69
2023/06/06 14:08:02;;;;;;;28.13;12.48;;;26.20;92.40;;;;;;5091804;28;20059;-69
2023/06/06 14:11:07;;;;;;;28.08;11.48;;;26.10;92.00;;;;;;5078713;28;20396;-72
2023/06/06 14:14:12;;;;;;;18.50;5.88;;;26.10;91.70;;;;;;5089796;28;20403;-75
2023/06/06 14:17:16;;;;;;;19.92;4.75;;;26.10;91.60;;;;;;5091734;28;20039;-84
2023/06/06 14:20:21;;;;;;;17.33;4.38;;;26.20;92.00;;;;;;5094829;28;20082;-87
2023/06/06 14:23:26;;;;;;;19.23;5.00;;;26.30;91.70;;;;;;5091566;28;20392;-77
2023/06/06 14:26:30;;;;;;;15.50;4.50;;;26.20;91.20;;;;;;5091418;28;20054;-74
2023/06/06 14:29:35;;;;;;;22.15;4.85;;;26.20;91.10;;;;;;5077722;28;20047;-73
2023/06/06 14:32:40;;;;;;;17.42;5.43;;;26.20;90.90;;;;;;5077212;28;20070;-74
2023/06/06 14:35:44;;;;;;;18.65;4.80;;;26.30;91.10;;;;;;5088839;28;20055;-75
2023/06/06 14:38:48;;;;;;;21.08;6.40;;;26.40;91.10;;;;;;5089553;28;20499;-78
2023/06/06 14:41:51;;;;;;;20.13;5.07;;;26.50;90.70;;;;;;5090774;28;20063;-74
2023/06/06 14:44:55;;;;;;;15.55;4.57;;;26.60;90.70;;;;;;5090820;28;20043;-76
2023/06/06 14:48:00;;;;;;;13.40;4.78;;;26.70;90.50;;;;;;5055075;28;20051;-74
2023/06/06 14:51:05;;;;;;;15.20;4.30;;;26.70;90.40;;;;;;5076846;28;20047;-72
2023/06/06 14:54:09;;;;;;;20.83;4.82;;;26.70;90.70;;;;;;5091019;28;20407;-73
2023/06/06 14:57:17;;;;;;;13.20;4.47;;;26.70;90.50;;;;;;5091007;28;20043;-70
2023/06/06 15:00:23;;;;;;;17.13;4.75;;;26.60;90.30;;;;;;5090650;28;20054;-72
2023/06/06 15:03:28;;;;;;;16.88;5.93;;;26.60;90.10;;;;;;5077349;28;20047;-72
2023/06/06 15:06:32;;;;;;;27.20;11.13;;;26.60;90.20;;;;;;5077628;28;20062;-77
2023/06/06 15:09:37;;;;;;;43.80;26.75;;;26.60;90.30;;;;;;5090543;28;20079;-80
2023/06/06 15:12:41;;;;;;;26.17;8.85;;;26.50;90.60;;;;;;5089968;28;20047;-77
2023/06/06 15:15:45;;;;;;;26.10;9.20;;;26.40;90.60;;;;;;5077003;28;20526;-75
2023/06/06 15:18:49;;;;;;;23.40;8.43;;;26.40;90.90;;;;;;5090681;28;20379;-82
2023/06/06 15:21:54;;;;;;;20.98;7.75;;;26.40;91.10;;;;;;5091313;28;20059;-80
2023/06/06 15:24:58;;;;;;;17.75;8.40;;;26.40;90.60;;;;;;5091218;28;20059;-80
2023/06/06 15:28:03;;;;;;;22.80;9.15;;;26.40;90.60;;;;;;5079124;28;20051;-80
2023/06/06 15:31:08;;;;;;;21.38;7.80;;;26.40;90.60;;;;;;5091334;28;20043;-82
2023/06/06 15:34:14;;;;;;;16.80;7.78;;;26.30;90.80;;;;;;5091770;28;20051;-81
2023/06/06 15:37:18;;;;;;;23.55;11.32;;;26.20;90.60;;;;;;5078664;28;20039;-77
2023/06/06 15:40:22;;;;;;;15.98;8.00;;;26.20;90.80;;;;;;5090936;28;20047;-78
2023/06/06 15:43:26;;;;;;;26.85;13.05;;;26.20;90.80;;;;;;5091762;28;20043;-81
2023/06/06 15:46:30;;;;;;;20.80;11.20;;;26.20;90.80;;;;;;5092733;28;20063;-75